Time;durP1;ratioP1;P1;durP2;ratioP2;P2;SDS_P1;SDS_P2;PMS_P1;PMS_P2;Temp;Humidity;BMP_temperature;BMP_pressure;BME280_temperature;BME280_humidity;BME280_pressure;Samples;Min_cycle;Max_cycle;Signal;HPM_P1;HPM_P2
2022/06/12 00:02:22;;;;;;;;;1.75;1.75;;;;;20.05;46.76;101768.34;5112299;27;45686;-83
2022/06/12 00:04:47;;;;;;;;;2.25;2.00;;;;;20.26;47.32;101804.19;5114411;27;45141;-83
2022/06/12 00:07:12;;;;;;;;;3.00;2.75;;;;;20.29;46.83;101807.75;5121052;27;45315;-85
2022/06/12 00:09:38;;;;;;;;;2.00;1.75;;;;;20.34;46.87;101818.50;5114743;27;45111;-87
2022/06/12 00:12:04;;;;;;;;;2.25;1.00;;;;;20.24;46.83;101812.16;5114722;27;47379;-90
2022/06/12 00:14:29;;;;;;;;;4.50;2.00;;;;;20.18;46.64;101800.53;5114621;27;45157;-82
2022/06/12 00:16:55;;;;;;;;;2.00;2.00;;;;;19.83;46.87;101748.50;5113638;27;45183;-81
2022/06/12 00:19:21;;;;;;;;;1.25;1.25;;;;;20.35;46.99;101842.56;5133844;27;45160;-84
2022/06/12 00:21:47;;;;;;;;;1.00;1.00;;;;;20.33;46.85;101846.09;5132699;27;46229;-89
2022/06/12 00:24:16;;;;;;;;;3.00;2.00;;;;;19.92;46.32;101778.84;5111896;27;45086;-80
2022/06/12 00:27:00;;;;;;;;;2.25;2.00;;;;;20.15;47.08;101827.16;5094904;27;45295;-89
2022/06/12 00:29:29;;;;;;;;;2.50;1.75;;;;;19.90;46.39;101785.94;5120994;27;45173;-85
2022/06/12 00:32:01;;;;;;;;;1.00;1.00;;;;;20.08;46.78;101829.75;5109573;27;47141;-81
2022/06/12 00:34:31;;;;;;;;;2.00;0.50;;;;;20.15;46.67;101851.19;5112619;27;45369;-82
2022/06/12 00:36:57;;;;;;;;;1.00;1.00;;;;;20.01;47.14;101838.59;5114236;27;45290;-81
2022/06/12 00:39:24;;;;;;;;;2.00;1.00;;;;;19.88;46.88;101815.25;5132670;27;45223;-86
2022/06/12 00:41:52;;;;;;;;;1.00;1.00;;;;;20.07;47.15;101857.34;5128099;27;45452;-81
2022/06/12 00:44:22;;;;;;;;;2.50;1.00;;;;;19.97;47.37;101843.84;5120412;27;45251;-85
2022/06/12 00:46:52;;;;;;;;;1.00;1.00;;;;;20.01;47.54;101859.03;5120276;27;45110;-89
2022/06/12 00:49:34;;;;;;;;;2.00;1.00;;;;;19.85;47.45;101833.88;5109895;27;45317;-87
2022/06/12 00:52:10;;;;;;;;;1.00;1.00;;;;;19.95;47.46;101857.19;5130224;27;45250;-82
2022/06/12 00:54:41;;;;;;;;;0.25;0.25;;;;;19.69;47.50;101810.56;5093390;27;45198;-90
2022/06/12 00:57:08;;;;;;;;;1.00;1.00;;;;;19.66;47.97;101811.41;5112382;27;44954;-89
2022/06/12 00:59:36;;;;;;;;;0.50;0.50;;;;;19.86;47.60;101843.72;5113438;27;45217;-89
2022/06/12 01:02:04;;;;;;;;;2.00;1.50;;;;;19.84;48.16;101853.44;5111838;27;46129;-90
2022/06/12 01:07:18;;;;;;;;;2.00;2.00;;;;;19.63;48.09;101814.03;5129075;27;45340;-91
2022/06/12 01:09:48;;;;;;;;;0.50;0.50;;;;;19.30;48.14;101751.28;5125811;27;45067;-88
2022/06/12 01:12:18;;;;;;;;;1.25;1.00;;;;;19.76;48.50;101850.69;5115511;27;45698;-91
2022/06/12 01:14:53;;;;;;;;;2.00;1.00;;;;;19.73;48.52;101841.72;5130250;27;45281;-88
2022/06/12 01:17:21;;;;;;;;;1.75;1.00;;;;;19.56;48.72;101812.13;5118114;27;45578;-89
2022/06/12 01:19:51;;;;;;;;;1.00;1.00;;;;;19.70;48.83;101847.00;5131283;27;45357;-86
2022/06/12 01:22:38;;;;;;;;;2.00;2.00;;;;;19.68;48.83;101851.44;5117830;27;46145;-90
2022/06/12 01:25:22;;;;;;;;;1.75;1.00;;;;;19.65;49.21;101848.72;5127840;27;45207;-89
2022/06/12 01:28:22;;;;;;;;;0.75;0.50;;;;;19.62;48.90;101846.03;5112977;27;45067;-87
2022/06/12 01:31:06;;;;;;;;;2.00;1.25;;;;;19.54;49.36;101844.09;5095871;27;45513;-89
2022/06/12 01:33:56;;;;;;;;;3.00;1.50;;;;;19.55;49.48;101851.19;5109798;27;47529;-90
2022/06/12 01:36:25;;;;;;;;;2.00;1.25;;;;;19.54;49.38;101848.53;5114851;27;45435;-88
2022/06/12 01:39:05;;;;;;;;;1.50;1.25;;;;;18.93;49.69;101744.50;5127614;27;45490;-90
2022/06/12 01:41:53;;;;;;;;;2.00;1.75;;;;;19.11;49.91;101786.53;5133169;27;45394;-90
2022/06/12 01:44:35;;;;;;;;;3.25;2.00;;;;;19.48;49.64;101853.78;5121697;27;45433;-91
2022/06/12 01:47:25;;;;;;;;;3.25;1.25;;;;;19.45;50.03;101857.25;5108751;27;45605;-90
2022/06/12 01:50:18;;;;;;;;;1.00;1.00;;;;;19.43;49.87;101856.34;5098442;27;45304;-87
2022/06/12 01:52:58;;;;;;;;;4.00;1.75;;;;;19.42;50.30;101853.69;5120859;27;45138;-91
2022/06/12 01:56:06;;;;;;;;;1.00;1.00;;;;;18.94;49.77;101770.28;5112853;27;47419;-87
2022/06/12 01:58:46;;;;;;;;;1.00;0.75;;;;;19.36;50.29;101853.56;5077274;27;45083;-85
2022/06/12 02:01:25;;;;;;;;;2.00;1.00;;;;;19.04;50.07;101798.84;5124977;27;45331;-90
2022/06/12 02:04:05;;;;;;;;;1.25;0.25;;;;;19.28;49.75;101849.00;5120201;27;45080;-90
2022/06/12 02:07:11;;;;;;;;;2.00;2.00;;;;;19.20;50.47;101849.75;5113544;27;47441;-85
2022/06/12 02:09:43;;;;;;;;;1.25;1.25;;;;;19.05;50.22;101826.41;5132310;27;45543;-82
2022/06/12 02:15:29;;;;;;;;;2.00;1.75;;;;;19.18;50.08;101860.38;5129476;27;45304;-88
2022/06/12 02:18:01;;;;;;;;;1.25;1.25;;;;;19.11;50.56;101861.13;5131196;27;45378;-90
2022/06/12 02:20:34;;;;;;;;;2.25;1.00;;;;;19.13;50.21;101863.84;5114875;27;45463;-90
2022/06/12 02:23:06;;;;;;;;;3.00;2.25;;;;;19.05;50.11;101856.59;5133782;27;44948;-91
2022/06/12 02:25:36;;;;;;;;;1.75;1.00;;;;;18.90;50.11;101839.44;5114637;27;45305;-89
2022/06/12 02:28:12;;;;;;;;;2.00;2.00;;;;;18.84;50.27;101845.56;5122636;27;46001;-89
2022/06/12 02:30:42;;;;;;;;;2.75;2.00;;;;;18.73;50.29;101828.50;5124910;27;45598;-90
2022/06/12 02:33:24;;;;;;;;;3.75;1.00;;;;;19.01;50.18;101877.84;5112329;27;45486;-91
2022/06/12 02:35:58;;;;;;;;;1.50;1.00;;;;;18.93;50.30;101864.41;5129150;27;45287;-91
2022/06/12 02:38:37;;;;;;;;;1.00;1.00;;;;;18.96;50.38;101883.06;5116001;27;47376;-88
2022/06/12 02:41:12;;;;;;;;;0.50;0.50;;;;;18.92;49.92;101877.69;5126440;27;45221;-89
2022/06/12 02:43:41;;;;;;;;;1.75;1.75;;;;;18.69;50.16;101853.28;5116615;27;45194;-91
2022/06/12 02:46:22;;;;;;;;;2.00;2.00;;;;;18.76;50.33;101861.41;5111944;27;45177;-90
2022/06/12 02:48:47;;;;;;;;;1.75;0.00;;;;;18.77;50.56;101862.31;5127319;27;45776;-90
2022/06/12 02:51:24;;;;;;;;;2.00;1.00;;;;;18.84;50.51;101866.00;5118044;27;45083;-89
2022/06/12 02:54:00;;;;;;;;;2.75;2.00;;;;;18.80;50.70;101873.91;5113361;27;45152;-91
2022/06/12 02:56:37;;;;;;;;;1.75;1.25;;;;;18.78;50.54;101872.09;5119109;27;45122;-90
2022/06/12 02:59:21;;;;;;;;;0.25;0.25;;;;;18.75;50.43;101877.34;5106981;27;47225;-89
2022/06/12 03:02:01;;;;;;;;;2.00;1.00;;;;;18.57;50.78;101859.25;5128076;27;45623;-90
2022/06/12 03:04:53;;;;;;;;;3.25;2.50;;;;;18.46;50.33;101839.47;5110335;27;45120;-87
2022/06/12 03:07:18;;;;;;;;;2.50;1.00;;;;;18.60;50.87;101863.72;5124675;27;45265;-90
2022/06/12 03:09:44;;;;;;;;;2.00;2.00;;;;;18.49;50.77;101839.53;5121332;27;45628;-89
2022/06/12 03:12:09;;;;;;;;;1.75;1.75;;;;;18.25;50.52;101794.72;5109336;27;45300;-89
2022/06/12 03:14:35;;;;;;;;;2.00;2.00;;;;;18.65;51.23;101867.38;5113519;27;45161;-90
2022/06/12 03:17:01;;;;;;;;;2.75;1.75;;;;;18.51;51.13;101851.09;5116517;27;45000;-90
2022/06/12 03:19:42;;;;;;;;;2.25;2.00;;;;;18.24;51.10;101804.47;5110746;27;45207;-84
2022/06/12 03:22:20;;;;;;;;;1.50;1.00;;;;;18.62;50.75;101876.22;5110370;27;45088;-91
2022/06/12 03:24:52;;;;;;;;;1.50;1.50;;;;;18.60;50.85;101874.38;5112145;27;45410;-91
2022/06/12 03:27:48;;;;;;;;;2.50;2.00;;;;;18.59;51.10;101873.47;5127359;27;45069;-91
2022/06/12 03:30:23;;;;;;;;;2.50;2.50;;;;;18.41;51.37;101849.13;5114318;27;47694;-91
2022/06/12 03:33:10;;;;;;;;;1.00;1.00;;;;;18.56;51.14;101878.72;5108307;27;45710;-90
2022/06/12 03:35:54;;;;;;;;;2.00;1.00;;;;;18.53;51.32;101882.25;5116447;27;45023;-91
2022/06/12 03:38:32;;;;;;;;;1.00;1.00;;;;;18.49;51.57;101874.16;5127624;27;45196;-89
2022/06/12 03:41:15;;;;;;;;;2.00;2.00;;;;;18.51;51.25;101875.97;5116062;27;47398;-91
2022/06/12 03:44:06;;;;;;;;;2.25;2.00;;;;;17.95;51.61;101787.88;5133049;27;45287;-81
2022/06/12 03:46:46;;;;;;;;;2.00;2.00;;;;;18.46;52.16;101882.97;5095685;27;45289;-86
2022/06/12 03:49:21;;;;;;;;;4.00;2.75;;;;;18.30;51.82;101849.81;5109770;27;45525;-90
2022/06/12 03:52:00;;;;;;;;;3.50;1.50;;;;;18.17;51.49;101837.09;5111559;27;47911;-83
2022/06/12 03:54:45;;;;;;;;;2.25;2.25;;;;;18.11;52.32;101831.66;5114666;27;45566;-88
2022/06/12 04:00:17;;;;;;;;;3.00;1.25;;;;;18.28;52.38;101861.31;5120440;27;44929;-87
2022/06/12 04:03:04;;;;;;;;;2.00;2.00;;;;;18.32;52.49;101865.81;5113413;27;47754;-80
2022/06/12 04:05:59;;;;;;;;;3.75;2.25;;;;;18.31;52.29;101875.56;5132830;27;45755;-81
2022/06/12 04:08:33;;;;;;;;;3.00;2.00;;;;;18.29;52.52;101873.75;5115219;27;45202;-85
2022/06/12 04:10:59;;;;;;;;;1.00;0.75;;;;;17.79;53.54;101791.09;5132530;27;45397;-84
2022/06/12 04:13:25;;;;;;;;;3.75;3.00;;;;;18.11;53.52;101854.72;5100867;27;47016;-87
2022/06/12 04:15:58;;;;;;;;;3.50;3.00;;;;;18.12;53.83;101860.06;5130917;27;45133;-80
2022/06/12 04:18:26;;;;;;;;;1.00;1.00;;;;;18.16;53.18;101867.25;5106603;27;45381;-87
2022/06/12 04:21:06;;;;;;;;;1.75;1.50;;;;;18.13;53.80;101864.53;5094563;27;45286;-88
2022/06/12 04:24:04;;;;;;;;;3.75;2.50;;;;;17.82;54.05;101823.06;5110730;27;45916;-90
2022/06/12 04:26:41;;;;;;;;;3.25;2.25;;;;;17.90;53.57;101840.09;5098786;27;45131;-86
2022/06/12 04:29:13;;;;;;;;;2.25;2.25;;;;;18.11;54.34;101878.66;5126368;27;45360;-82
2022/06/12 04:31:45;;;;;;;;;1.50;1.50;;;;;18.09;54.70;101880.41;5112887;27;45279;-83
2022/06/12 04:34:19;;;;;;;;;3.00;2.00;;;;;17.92;54.04;101850.75;5113034;27;45592;-84
2022/06/12 04:36:48;;;;;;;;;2.75;2.75;;;;;17.75;54.25;101815.81;5112381;27;45637;-85
2022/06/12 04:39:16;;;;;;;;;3.50;2.50;;;;;18.15;53.95;101883.19;5106103;27;45167;-86
2022/06/12 04:41:43;;;;;;;;;3.50;1.75;;;;;17.82;53.25;101817.75;5129957;27;45043;-87
2022/06/12 04:44:09;;;;;;;;;1.50;1.00;;;;;17.98;53.53;101841.16;5121199;27;45573;-86
2022/06/12 04:46:37;;;;;;;;;2.75;1.75;;;;;18.17;53.98;101863.72;5124806;27;45075;-87
2022/06/12 04:49:04;;;;;;;;;3.00;2.75;;;;;18.24;53.89;101880.75;5094193;27;45082;-80
2022/06/12 04:51:30;;;;;;;;;2.50;2.00;;;;;18.10;53.24;101848.50;5113794;27;45280;-87
2022/06/12 04:53:56;;;;;;;;;2.50;2.50;;;;;17.98;52.93;101824.28;5114398;27;47857;-88
2022/06/12 04:56:25;;;;;;;;;2.00;2.00;;;;;17.97;53.31;101822.50;5117593;27;45084;-90
2022/06/12 04:58:52;;;;;;;;;4.75;2.50;;;;;18.09;53.10;101836.06;5096007;27;45065;-84
2022/06/12 05:01:18;;;;;;;;;1.75;1.75;;;;;18.02;52.97;101828.81;5112547;27;45415;-84
2022/06/12 05:03:43;;;;;;;;;3.75;2.50;;;;;17.99;52.90;101815.47;5122675;27;45835;-85
2022/06/12 05:06:13;;;;;;;;;2.75;2.00;;;;;18.34;53.65;101876.50;5115236;27;46173;-89
2022/06/12 05:08:38;;;;;;;;;3.25;3.00;;;;;18.01;53.38;101814.63;5112888;27;45083;-88
2022/06/12 05:11:03;;;;;;;;;1.75;1.50;;;;;18.06;53.92;101812.06;5117923;27;46505;-88
2022/06/12 05:13:29;;;;;;;;;3.00;3.00;;;;;17.93;53.52;101778.06;5112103;27;45495;-88
2022/06/12 05:15:55;;;;;;;;;1.00;1.00;;;;;17.98;53.56;101792.34;5128776;27;45264;-83
2022/06/12 05:18:20;;;;;;;;;2.00;2.00;;;;;18.04;53.55;101785.44;5111720;27;45210;-88
2022/06/12 05:20:47;;;;;;;;;3.75;2.75;;;;;18.30;52.93;101823.19;5119409;27;45393;-84
2022/06/12 05:23:13;;;;;;;;;2.25;1.25;;;;;18.29;53.09;101816.09;5103873;27;46225;-81
2022/06/12 05:25:40;;;;;;;;;2.75;1.75;;;;;18.25;53.15;101802.69;5125649;27;45209;-88
2022/06/12 05:28:06;;;;;;;;;2.00;2.00;;;;;18.33;52.96;101806.41;5118781;27;45213;-87
2022/06/12 05:30:34;;;;;;;;;2.00;1.50;;;;;18.43;53.11;101828.78;5115897;27;45314;-89
2022/06/12 05:33:01;;;;;;;;;1.00;1.00;;;;;18.61;52.99;101860.19;5111100;27;48491;-85
2022/06/12 05:35:29;;;;;;;;;0.75;0.75;;;;;18.36;52.94;101821.53;5123059;27;45144;-89
2022/06/12 05:37:55;;;;;;;;;1.25;1.25;;;;;18.44;52.83;101830.56;5131985;27;45429;-81
2022/06/12 05:40:24;;;;;;;;;3.75;2.75;;;;;18.37;52.74;101823.31;5096507;27;45048;-87
2022/06/12 05:42:50;;;;;;;;;2.00;1.75;;;;;18.39;52.97;101817.16;5120271;27;45518;-86
2022/06/12 05:45:20;;;;;;;;;3.00;2.00;;;;;18.67;52.58;101874.53;5119303;27;45241;-86
2022/06/12 05:47:49;;;;;;;;;1.75;1.75;;;;;18.53;52.72;101842.31;5108898;27;45421;-87
2022/06/12 05:50:15;;;;;;;;;5.25;3.75;;;;;18.68;51.86;101872.75;5092571;27;45488;-85
2022/06/12 05:52:41;;;;;;;;;3.25;2.75;;;;;18.48;52.07;101838.66;5117409;27;45432;-89
2022/06/12 05:55:07;;;;;;;;;0.75;0.75;;;;;18.71;51.92;101867.50;5112624;27;45181;-86
2022/06/12 05:57:33;;;;;;;;;3.00;2.00;;;;;18.68;51.60;101856.78;5127319;27;45194;-87
2022/06/12 05:59:58;;;;;;;;;1.75;1.25;;;;;18.47;51.88;101815.56;5124337;27;45193;-88
2022/06/12 06:02:24;;;;;;;;;1.75;1.75;;;;;18.74;51.64;101860.47;5127454;27;45720;-87
2022/06/12 06:04:49;;;;;;;;;2.00;2.00;;;;;18.50;52.16;101799.63;5114652;27;45147;-87
2022/06/12 06:07:15;;;;;;;;;2.00;1.75;;;;;18.81;51.82;101825.09;5094788;27;45246;-89
2022/06/12 06:09:40;;;;;;;;;2.00;1.50;;;;;19.19;51.05;101877.28;5122273;27;45035;-88
2022/06/12 06:12:06;;;;;;;;;2.00;1.50;;;;;18.87;51.48;101826.09;5120331;27;45577;-88
2022/06/12 06:14:31;;;;;;;;;3.00;3.00;;;;;18.79;50.83;101809.97;5117124;27;45151;-87
2022/06/12 06:16:57;;;;;;;;;3.00;2.75;;;;;19.18;51.03;101880.81;5124606;27;45349;-87
2022/06/12 06:19:23;;;;;;;;;2.00;1.00;;;;;18.73;50.90;101804.53;5124508;27;45272;-87
2022/06/12 06:21:48;;;;;;;;;2.00;2.00;;;;;19.12;50.50;101886.94;5114789;27;46176;-89
2022/06/12 06:24:13;;;;;;;;;2.00;1.25;;;;;18.87;50.43;101853.63;5105335;27;45234;-90
2022/06/12 06:26:40;;;;;;;;;1.00;1.00;;;;;19.14;51.02;101897.63;5122540;27;45325;-87
2022/06/12 06:29:05;;;;;;;;;2.00;1.00;;;;;19.07;50.31;101876.19;5111906;27;45344;-86
2022/06/12 06:31:30;;;;;;;;;1.00;1.00;;;;;19.05;49.94;101869.94;5106961;27;46292;-88
2022/06/12 06:33:56;;;;;;;;;1.00;1.00;;;;;18.87;49.93;101834.97;5113171;27;45285;-90
2022/06/12 06:36:22;;;;;;;;;2.00;2.00;;;;;19.07;49.99;101870.88;5118985;27;46441;-89
2022/06/12 06:38:51;;;;;;;;;1.50;1.50;;;;;19.21;50.07;101896.84;5105638;27;45232;-87
2022/06/12 06:41:16;;;;;;;;;1.75;1.00;;;;;18.90;50.34;101836.78;5121685;27;45437;-89
2022/06/12 06:46:26;;;;;;;;;1.00;1.00;;;;;18.99;49.43;101840.50;5119408;27;45325;-89
2022/06/12 06:48:52;;;;;;;;;3.00;2.00;;;;;19.07;49.67;101848.66;5120983;27;45375;-89
2022/06/12 06:51:17;;;;;;;;;1.50;1.50;;;;;18.93;49.70;101821.75;5099494;27;47312;-88
2022/06/12 06:53:43;;;;;;;;;2.50;1.75;;;;;19.18;49.64;101870.16;5108881;27;45449;-90
2022/06/12 06:56:08;;;;;;;;;4.00;1.75;;;;;19.16;49.83;101850.56;5114960;27;45064;-90
2022/06/12 06:58:35;;;;;;;;;2.50;2.50;;;;;19.17;49.97;101839.94;5105330;27;45217;-91
2022/06/12 07:01:02;;;;;;;;;2.00;2.00;;;;;19.42;49.50;101864.34;5110959;27;45675;-89
2022/06/12 07:03:29;;;;;;;;;0.25;0.25;;;;;19.62;49.41;101884.25;5119435;27;45137;-89
2022/06/12 07:05:55;;;;;;;;;3.25;2.00;;;;;19.77;48.73;101899.59;5133531;27;45007;-87
2022/06/12 07:08:23;;;;;;;;;1.00;1.00;;;;;19.48;48.73;101854.66;5136035;27;44989;-88
2022/06/12 07:10:50;;;;;;;;;2.00;2.00;;;;;19.38;48.57;101844.72;5131327;27;45540;-87
2022/06/12 07:13:15;;;;;;;;;2.00;2.00;;;;;19.31;48.34;101827.75;5116885;27;45123;-90
2022/06/12 07:15:41;;;;;;;;;1.75;1.25;;;;;19.51;48.49;101872.50;5114455;27;45157;-88
2022/06/12 07:18:09;;;;;;;;;3.00;2.25;;;;;19.62;48.94;101881.59;5114677;27;45056;-89
2022/06/12 07:20:37;;;;;;;;;2.00;1.00;;;;;19.74;48.71;101900.44;5112127;27;45458;-84
2022/06/12 07:23:05;;;;;;;;;2.00;2.00;;;;;19.54;48.54;101860.09;5116506;27;45413;-87
2022/06/12 07:25:33;;;;;;;;;3.00;1.25;;;;;19.58;49.04;101869.94;5130311;27;45207;-89
2022/06/12 07:27:58;;;;;;;;;3.25;1.25;;;;;19.55;48.16;101859.19;5131778;27;45529;-90
2022/06/12 07:30:24;;;;;;;;;2.00;1.75;;;;;19.47;48.47;101843.97;5135262;27;45244;-90
2022/06/12 07:32:50;;;;;;;;;0.00;0.00;;;;;19.81;48.84;101906.78;5135063;27;45134;-89
2022/06/12 07:35:16;;;;;;;;;1.75;1.00;;;;;19.59;48.05;101855.75;5136431;27;45060;-90
2022/06/12 07:37:42;;;;;;;;;1.25;1.00;;;;;19.67;48.01;101871.00;5116719;27;45415;-90
2022/06/12 07:40:13;;;;;;;;;1.50;1.50;;;;;19.73;48.16;101871.06;5114667;27;45543;-89
2022/06/12 07:42:39;;;;;;;;;2.00;1.00;;;;;19.67;48.32;101863.00;5114632;27;45747;-88
2022/06/12 07:45:05;;;;;;;;;1.25;1.25;;;;;19.81;48.24;101880.09;5114078;27;45157;-90
2022/06/12 07:47:30;;;;;;;;;1.25;1.00;;;;;19.61;48.16;101849.56;5114020;27;45440;-88
2022/06/12 07:49:55;;;;;;;;;3.75;2.00;;;;;19.66;48.56;101856.75;5114532;27;45313;-89
2022/06/12 07:52:22;;;;;;;;;1.50;1.00;;;;;19.47;48.65;101822.66;5114869;27;45455;-89
2022/06/12 07:54:47;;;;;;;;;2.00;2.00;;;;;19.66;48.22;101837.19;5095753;27;45170;-90
2022/06/12 07:57:12;;;;;;;;;3.50;3.00;;;;;19.78;48.14;101859.59;5114053;27;44993;-90
2022/06/12 07:59:38;;;;;;;;;4.00;1.75;;;;;19.75;48.01;101850.63;5115160;27;45794;-90
2022/06/12 08:02:04;;;;;;;;;2.25;2.25;;;;;20.02;47.87;101898.19;5113965;27;45166;-89
2022/06/12 08:04:30;;;;;;;;;2.50;2.00;;;;;19.97;48.23;101879.44;5115042;27;45163;-88
2022/06/12 08:06:55;;;;;;;;;3.00;2.25;;;;;19.77;47.44;101846.25;5096438;27;45194;-85
2022/06/12 08:09:21;;;;;;;;;2.00;2.00;;;;;19.90;48.24;101864.22;5114497;27;45984;-90
2022/06/12 08:11:48;;;;;;;;;2.25;1.75;;;;;20.05;47.94;101877.78;5114415;27;45454;-89
2022/06/12 08:14:16;;;;;;;;;2.00;1.50;;;;;19.73;47.80;101828.41;5114448;27;45095;-89
2022/06/12 08:16:43;;;;;;;;;2.00;2.00;;;;;20.18;47.57;101902.84;5114191;27;44977;-89
2022/06/12 08:21:56;;;;;;;;;2.00;2.00;;;;;19.94;47.55;101847.34;5111638;27;45157;-88
2022/06/12 08:24:21;;;;;;;;;1.00;1.00;;;;;20.18;47.80;101880.59;5112976;27;45031;-89
2022/06/12 08:26:47;;;;;;;;;2.00;2.00;;;;;19.89;47.48;101833.06;5110736;27;45624;-88
2022/06/12 08:29:13;;;;;;;;;2.00;2.00;;;;;20.28;47.47;101888.75;5118935;27;45240;-89
2022/06/12 08:31:43;;;;;;;;;3.00;3.00;;;;;20.34;47.38;101887.94;5123539;27;45543;-89
2022/06/12 08:34:16;;;;;;;;;2.00;2.00;;;;;20.28;47.46;101871.84;5128204;27;45231;-90
2022/06/12 08:36:42;;;;;;;;;0.75;0.75;;;;;20.20;47.19;101853.06;5131259;27;45211;-90
2022/06/12 08:39:08;;;;;;;;;3.25;2.25;;;;;20.24;47.18;101854.88;5117317;27;46364;-88
2022/06/12 08:41:42;;;;;;;;;2.50;1.50;;;;;20.44;46.27;101884.50;5133551;27;45512;-89
2022/06/12 08:44:26;;;;;;;;;1.25;1.25;;;;;20.18;46.82;101833.44;5132728;27;45161;-89
2022/06/12 08:47:06;;;;;;;;;2.00;2.00;;;;;20.35;46.92;101844.34;5104378;27;45620;-85
2022/06/12 08:49:34;;;;;;;;;3.00;2.75;;;;;20.54;46.87;101875.78;5121295;27;45816;-88
2022/06/12 08:52:28;;;;;;;;;1.25;1.00;;;;;20.46;46.15;101844.47;5103336;27;45522;-89
2022/06/12 08:55:09;;;;;;;;;3.75;2.00;;;;;20.61;45.59;101871.38;5108235;27;45214;-93
2022/06/12 08:57:40;;;;;;;;;1.00;1.00;;;;;19.93;44.83;101753.97;5130797;27;45249;-89
2022/06/12 09:00:11;;;;;;;;;3.00;1.00;;;;;20.64;45.84;101871.44;5128030;27;45435;-89
2022/06/12 09:02:41;;;;;;;;;3.00;3.00;;;;;20.07;45.11;101761.25;5120038;27;45573;-88
2022/06/12 09:05:11;;;;;;;;;2.00;2.00;;;;;20.72;45.77;101867.06;5127060;27;45203;-87
2022/06/12 09:07:54;;;;;;;;;2.00;2.00;;;;;20.73;46.08;101852.81;5100198;27;45163;-89
2022/06/12 09:10:33;;;;;;;;;2.50;2.50;;;;;20.81;45.69;101864.47;5107200;27;48132;-88
2022/06/12 09:13:17;;;;;;;;;1.75;1.75;;;;;20.85;44.48;101866.31;5109289;27;45268;-88
2022/06/12 09:16:09;;;;;;;;;2.00;2.00;;;;;20.90;44.68;101869.03;5089032;27;45726;-87
2022/06/12 09:18:54;;;;;;;;;2.00;1.50;;;;;20.83;44.91;101843.09;5097184;27;45444;-88
2022/06/12 09:21:39;;;;;;;;;3.00;3.00;;;;;20.96;45.50;101853.06;5095730;27;45836;-88
2022/06/12 09:24:26;;;;;;;;;5.75;3.00;;;;;20.72;45.58;101805.59;5114619;27;45836;-88
2022/06/12 09:27:02;;;;;;;;;2.50;2.50;;;;;21.01;45.87;101843.28;5113673;27;45114;-89
2022/06/12 09:29:58;;;;;;;;;2.50;2.00;;;;;21.11;45.44;101857.66;5117988;27;46073;-83
2022/06/12 09:32:45;;;;;;;;;2.00;1.25;;;;;21.17;45.43;101859.47;5110892;27;45499;-88
2022/06/12 09:35:22;;;;;;;;;3.75;2.75;;;;;21.14;45.01;101847.00;5113281;27;45284;-88
2022/06/12 09:38:18;;;;;;;;;2.25;2.25;;;;;21.28;45.55;101863.13;5111326;27;44938;-88
2022/06/12 09:40:59;;;;;;;;;1.50;1.50;;;;;21.33;44.57;101862.34;5095565;27;45119;-89
2022/06/12 09:43:24;;;;;;;;;7.00;6.75;;;;;21.39;44.81;101869.50;5131365;27;46015;-88
2022/06/12 09:46:20;;;;;;;;;2.50;2.50;;;;;21.45;45.36;101866.88;5128153;27;44978;-90
2022/06/12 09:48:53;;;;;;;;;3.00;3.00;;;;;21.51;44.87;101864.25;5113842;27;44981;-91
2022/06/12 09:51:37;;;;;;;;;2.00;1.75;;;;;21.58;44.71;101866.09;5106807;27;45475;-92
2022/06/12 09:54:36;;;;;;;;;3.00;2.00;;;;;21.65;44.80;101861.69;5109847;27;47066;-91
2022/06/12 09:57:24;;;;;;;;;2.00;2.00;;;;;21.74;45.40;101861.75;5091776;27;46066;-91
